Aviation Digital Data Service (ADDS)

Output produced by METARs form (0650 UTC 24 March 2019)
found at http://www.aviationweather.gov/metar/data/
 
EFET 240620Z AUTO 32004KT 9999 OVC020 M02/M03 Q0978
EFHA 240620Z AUTO 27022G32KT CAVOK 02/M05 Q1001
EFHK 240620Z 26013KT CAVOK 03/M04 Q1006 NOSIG
TAF EFHK 240538Z 2406/2506 27012KT CAVOK 
     TEMPO 2408/2415 28017G27KT
       
EFIV 240620Z 23003KT 2700 -SHSN OVC029 M02/M04 Q0978
TAF EFIV 240526Z 2406/2415 22008KT 9999 BKN030 
     TEMPO 2406/2409 4000 -SN BKN012 
     BECMG 2409/2411 33010KT
       
EFJO 240620Z AUTO 22008KT 180V280 CAVOK 01/M04 Q0996
TAF EFJO 240526Z 2406/2415 21008KT CAVOK 
     BECMG 2406/2408 27014KT 
     TEMPO 2408/2411 26015G25KT 6000 -SHSN SCT035TCU
       
EFJY 240620Z AUTO 27018KT CAVOK 02/M05 Q0998
TAF EFJY 240538Z 2406/2506 26014KT CAVOK 
     TEMPO 2406/2415 28016G27KT 
     PROB30 
     TEMPO 2412/2415 SCT050TCU 
     BECMG 2416/2418 26004KT
       
EFKI 240520Z AUTO 24012G22KT 9999 -SHSN BKN041 00/M03 Q0990
TAF EFKI 240526Z 2406/2415 24014KT 9999 BKN040 
     TEMPO 2406/2415 26016G28KT
       
EFKE 240620Z AUTO 26014KT CAVOK 04/M06 Q0985
TAF EFKE 240526Z 2406/2415 25014KT CAVOK 
     TEMPO 2406/2411 27017G27KT 
     TEMPO 2411/2415 4000 SHRASN SCT040TCU
       
EFKT 240620Z 30005KT 9999 OVC035 M00/M01 Q0977
TAF EFKT 240526Z 2406/2415 21004KT 9999 BKN008 
     BECMG 2407/2409 28010KT FEW008 BKN030 
     TEMPO 2409/2411 6000 -SHSNRA SCT025TCU 
     TEMPO 2413/2415 5000 SHRASN SCT030CB
       
EFKK 240620Z AUTO 24012G22KT 210V270 CAVOK 02/M05 Q0996
EFKU 240620Z AUTO 25014KT CAVOK 02/M04 Q0995
TAF EFKU 240526Z 2406/2506 21013KT CAVOK 
     TEMPO 2406/2407 26015G25KT 
     BECMG 2407/2409 27016KT 
     TEMPO 2409/2416 27018G28KT 
     TEMPO 2419/2423 3000 -SHSN SCT040TCU
       
EFKS 240620Z AUTO 23011KT 2200 -SN OVC009 M01/M02 Q0982
TAF EFKS 240526Z 2406/2415 20012KT 3000 -SN BKN015 
     TEMPO 2406/2408 1000 SN BKN009 
     BECMG 2408/2410 26015KT 9999 NSW 
     TEMPO 2411/2415 25015G25KT 4000 -SHSN SCT040TCU
       
EFLP 240620Z AUTO 24013KT CAVOK 01/M03 Q1002
EFMA 240620Z AUTO 27010KT 230V320 CAVOK 03/M05 Q1012
TAF EFMA 240538Z 2406/2415 27010KT CAVOK
       
EFMI 240620Z AUTO 26014G25KT 230V300 CAVOK 02/M05 Q1000
EFOU 240620Z AUTO 25018G29KT CAVOK 02/M03 Q0989
TAF EFOU 240526Z 2406/2506 25019KT CAVOK 
     TEMPO 2406/2413 26020G30KT 
     TEMPO 2413/2419 4000 -SHSN SCT045TCU 
     BECMG 2419/2421 31008KT
       
EFPO 240620Z AUTO 27016G26KT CAVOK 03/M04 Q1006
EFRO 240620Z 25018KT 9999 SCT037 BKN042 BKN200 03/M04 Q0980
TAF AMD EFRO 240618Z 2406/2506 24018KT 9999 SCT035 BKN180 
     TEMPO 2406/2409 25018G30KT 
     TEMPO 2409/2417 26020G30KT 3000 -SHSNRA SCT035CB 
     BECMG 2417/2419 30010KT 
     TEMPO 2423/2506 3000 -SN BKN012
       
EFSA 240620Z AUTO 24009KT 200V310 CAVOK 02/M04 Q0999
EFSI 240620Z AUTO 26012KT 220V310 CAVOK 02/M05 Q1000
EFTP 240620Z AUTO 27015G27KT 240V310 CAVOK 02/M06 Q1004
TAF EFTP 240538Z 2406/2506 27016KT CAVOK 
     TEMPO 2406/2415 28018G29KT 
     BECMG 2415/2417 26006KT
       
EFTU 240620Z AUTO 29013KT CAVOK 03/M05 Q1008
TAF EFTU 240538Z 2406/2506 28014KT CAVOK 
     TEMPO 2406/2415 29016G28KT 
     BECMG 2418/2420 26004KT
       
EFUT 240620Z AUTO 27014KT CAVOK 02/M04 Q1003
EFVA 240620Z AUTO 27012G22KT 220V300 CAVOK 02/M05 Q1000
TAF EFVA 240526Z 2406/2506 25014KT CAVOK 
     TEMPO 2407/2413 26018G28KT 
     BECMG 2421/2423 31008KT